CheckWX is a tool to help pilots better visualize weather data.  It is not intended as a substitute for an official pre-flight weather briefing.

20:46:37 UTC

CYXX TAF
Abbotsford Airport
Abbotsford, , Canada
TAF CYXX 181738Z 1818/1918 07010KT P6SM SCT030 OVC050 FM190300 04005KT P6SM OVC030 FM191300 03005KT 6SM -SN OVC025 TEMPO 1913/1918 2SM -SN VV015 PROB30 1915/1918 1SM -SHSN VV010 RMK NXT FCST BY 190000Z

Feb-18@
18:00 UTC

Feb-18 @ 18:00 UTC

Feb-19@
03:00 UTC

Feb-19 @ 03:00 UTC

TAF CYXX 181738Z 1818/1918 07010KT P6SM SCT030 OVC050
Wind
  • 070° at 10 KTS
Visibility
Greater than 6 SM
Cloud Levels
  • Scattered at 3,000' AGL
  • Overcast at 5,000' AGL

Feb-19@
03:00 UTC

Feb-19 @ 03:00 UTC

Feb-19@
13:00 UTC

Feb-19 @ 13:00 UTC

FM190300 04005KT P6SM OVC030

From

FromStandard forecast or significant change

Wind
  • 040° at 5 KTS
Visibility
Greater than 6 SM
Cloud Levels
  • Overcast at 3,000' AGL

Feb-19@
13:00 UTC

Feb-19 @ 13:00 UTC

Feb-19@
18:00 UTC

Feb-19 @ 18:00 UTC

FM191300 03005KT 6SM -SN OVC025

From

FromStandard forecast or significant change

Wind
  • 030° at 5 KTS
Visibility
6 SM
Conditions
Light Snow
Cloud Levels
  • Overcast at 2,500' AGL

Feb-19@
13:00 UTC

Feb-19 @ 13:00 UTC

Feb-19@
18:00 UTC

Feb-19 @ 18:00 UTC

TEMPO 1913/1918 2SM -SN VV015

Temporary

TemporaryChanges expected for less than half the time period

Visibility
2 SM
Conditions
Light Snow
Cloud Levels
  • Vertical visibility at 1,500' AGL

Feb-19@
15:00 UTC

Feb-19 @ 15:00 UTC

Feb-19@
18:00 UTC

Feb-19 @ 18:00 UTC

PROB30 1915/1918 1SM -SHSN VV010 RMK NXT FCST BY 190000Z

Probable - 30% Likelihood

Probable - 30% Likelihood during this time.

Visibility
1 SM
Conditions
Light Snow
Cloud Levels
  • Vertical visibility at 1,000' AGL